createdAt,value
2023-02-15T00:02:12.937Z,103118.09
2023-02-15T00:04:50.012Z,103111.78
2023-02-15T00:07:20.745Z,103112.31
2023-02-15T00:09:48.889Z,103117.38
2023-02-15T00:12:17.585Z,103113.56
2023-02-15T00:14:45.492Z,103110.94
2023-02-15T00:17:13.409Z,103107.75
2023-02-15T00:19:42.126Z,103107.38
2023-02-15T00:22:10.402Z,103110.06
2023-02-15T00:24:39.687Z,103111.94
2023-02-15T00:27:07.655Z,103102.56
2023-02-15T00:29:35.615Z,103099.66
2023-02-15T00:32:03.497Z,103095.97
2023-02-15T00:34:31.462Z,103090.69
2023-02-15T00:36:59.388Z,103090.53
2023-02-15T00:39:28.335Z,103094.50
2023-02-15T00:41:57.644Z,103082.53
2023-02-15T00:44:25.581Z,103093.84
2023-02-15T00:46:53.466Z,103094.50
2023-02-15T00:49:21.386Z,103104.38
2023-02-15T00:51:49.354Z,103100.88
2023-02-15T00:54:17.253Z,103098.28
2023-02-15T00:56:45.154Z,103107.56
2023-02-15T00:59:14.479Z,103107.31
2023-02-15T01:01:42.576Z,103115.00
2023-02-15T01:04:10.502Z,103106.44
2023-02-15T01:06:38.519Z,103108.06
2023-02-15T01:09:06.458Z,103101.66
2023-02-15T01:11:34.581Z,103107.53
2023-02-15T01:14:04.197Z,103105.84
2023-02-15T01:16:35.190Z,103113.31
2023-02-15T01:19:04.400Z,103103.09
2023-02-15T01:21:35.363Z,103105.88
2023-02-15T01:24:03.372Z,103105.97
2023-02-15T01:26:31.271Z,103112.81
2023-02-15T01:28:59.189Z,103102.13
2023-02-15T01:31:27.285Z,103096.16
2023-02-15T01:33:56.673Z,103094.78
2023-02-15T01:36:24.548Z,103087.38
2023-02-15T01:38:52.471Z,103093.28
2023-02-15T01:41:24.216Z,103096.22
2023-02-15T01:43:54.200Z,103090.84
2023-02-15T01:46:25.311Z,103082.22
2023-02-15T01:48:57.971Z,103077.91
2023-02-15T01:51:27.638Z,103072.97
2023-02-15T01:53:59.809Z,103076.09
2023-02-15T01:56:31.144Z,103077.63
2023-02-15T01:59:01.910Z,103087.78
2023-02-15T02:01:30.170Z,103078.97
2023-02-15T02:04:08.046Z,103066.13
2023-02-15T02:06:37.610Z,103081.09
2023-02-15T02:09:05.866Z,103068.03
2023-02-15T02:11:34.692Z,103060.25
2023-02-15T02:14:02.635Z,103059.31
2023-02-15T02:16:37.947Z,103062.94
2023-02-15T02:19:41.352Z,103076.13
2023-02-15T02:22:51.343Z,103080.03
2023-02-15T02:25:41.672Z,103060.88
2023-02-15T02:28:23.250Z,103069.78
2023-02-15T02:31:24.703Z,103057.56
2023-02-15T02:33:59.983Z,103060.53
2023-02-15T02:36:34.025Z,103059.41
2023-02-15T02:39:15.637Z,103062.13
2023-02-15T02:41:52.686Z,103066.41
2023-02-15T02:44:24.129Z,103065.03
2023-02-15T02:46:54.649Z,103073.06
2023-02-15T02:49:37.602Z,103063.78
2023-02-15T02:52:07.763Z,103065.59
2023-02-15T02:54:36.969Z,103061.38
2023-02-15T02:57:06.706Z,103063.06
2023-02-15T02:59:36.451Z,103059.53
2023-02-15T03:02:08.979Z,103058.00
2023-02-15T03:04:40.144Z,103053.00
2023-02-15T03:07:10.962Z,103056.28
2023-02-15T03:09:43.652Z,103066.31
2023-02-15T03:12:13.309Z,103064.56
2023-02-15T03:14:41.453Z,103065.22
2023-02-15T03:17:10.198Z,103063.63
2023-02-15T03:19:41.322Z,103063.88
2023-02-15T03:22:12.706Z,103071.38
2023-02-15T03:24:43.297Z,103061.28
2023-02-15T03:27:14.712Z,103071.38
2023-02-15T03:29:42.684Z,103067.72
2023-02-15T03:32:12.772Z,103060.88
2023-02-15T03:34:42.145Z,103055.38
2023-02-15T03:37:15.723Z,103052.53
2023-02-15T03:39:47.390Z,103050.16
2023-02-15T03:42:18.940Z,103056.41
2023-02-15T03:44:54.373Z,103043.22
2023-02-15T03:47:25.683Z,103041.63
2023-02-15T03:49:57.279Z,103032.50
2023-02-15T03:52:25.932Z,103047.53
2023-02-15T03:54:54.136Z,103044.22
2023-02-15T03:57:41.175Z,103046.03
2023-02-15T04:00:32.032Z,103054.72
2023-02-15T04:03:25.040Z,103043.41
2023-02-15T04:05:54.346Z,103057.31
2023-02-15T04:08:42.285Z,103051.47
2023-02-15T04:11:09.171Z,103048.66
2023-02-15T04:13:37.044Z,103039.03
2023-02-15T04:16:05.124Z,103038.09
2023-02-15T04:18:51.813Z,103041.63
2023-02-15T04:21:39.802Z,103057.94
2023-02-15T04:24:25.466Z,103061.03
2023-02-15T04:26:54.631Z,103061.34
2023-02-15T04:29:22.904Z,103051.72
2023-02-15T04:31:51.223Z,103050.75
2023-02-15T04:34:19.376Z,103043.00
2023-02-15T04:36:48.716Z,103041.25
2023-02-15T04:39:17.899Z,103036.06
2023-02-15T04:41:46.004Z,103035.84
2023-02-15T04:44:13.913Z,103040.38
2023-02-15T04:46:41.808Z,103038.63
2023-02-15T04:49:10.376Z,103049.44
2023-02-15T04:51:38.650Z,103039.34
2023-02-15T04:54:08.067Z,103041.00
2023-02-15T04:56:38.714Z,103035.66
2023-02-15T04:59:06.696Z,103028.81
2023-02-15T05:01:34.623Z,103026.19
2023-02-15T05:04:02.624Z,103026.16
2023-02-15T05:06:30.990Z,103033.91
2023-02-15T05:09:00.179Z,103030.22
2023-02-15T05:11:29.640Z,103018.44
2023-02-15T05:13:57.516Z,103021.13
2023-02-15T05:16:26.631Z,103019.25
2023-02-15T05:18:54.546Z,103025.03
2023-02-15T05:21:22.853Z,103008.38
2023-02-15T05:23:50.761Z,103007.25
2023-02-15T05:26:38.798Z,103021.34
2023-02-15T05:29:08.374Z,103011.44
2023-02-15T05:31:36.936Z,102988.47
2023-02-15T05:34:05.452Z,102987.00
2023-02-15T05:36:33.342Z,102986.97
2023-02-15T05:39:01.239Z,102989.63
2023-02-15T05:41:29.206Z,102995.41
2023-02-15T05:43:57.612Z,103005.94
2023-02-15T05:46:26.915Z,102995.34
2023-02-15T05:48:54.848Z,103001.53
2023-02-15T05:51:22.730Z,103001.34
2023-02-15T05:53:50.632Z,102999.19
2023-02-15T05:56:18.549Z,102992.13
2023-02-15T05:58:46.487Z,103004.25
2023-02-15T06:01:15.852Z,103008.03
2023-02-15T06:03:45.388Z,103001.03
2023-02-15T06:06:13.508Z,103006.06
2023-02-15T06:08:41.538Z,103008.25
2023-02-15T06:11:09.558Z,103010.03
2023-02-15T06:13:38.909Z,103008.19
2023-02-15T06:16:07.788Z,103000.16
2023-02-15T06:18:35.869Z,102992.19
2023-02-15T06:21:05.245Z,103013.75
2023-02-15T06:23:33.188Z,103006.63
2023-02-15T06:26:01.465Z,103009.81
2023-02-15T06:28:29.592Z,103006.84
2023-02-15T06:30:57.639Z,103010.00
2023-02-15T06:33:25.795Z,103001.41
2023-02-15T06:35:53.846Z,103007.59
2023-02-15T06:38:23.135Z,103008.00
2023-02-15T06:40:51.018Z,103000.59
2023-02-15T06:43:19.011Z,102998.00
2023-02-15T06:45:47.233Z,103002.47
2023-02-15T06:48:15.409Z,102998.91
2023-02-15T06:50:43.363Z,103016.31
2023-02-15T06:53:11.288Z,103014.22
2023-02-15T06:55:40.608Z,103006.78
2023-02-15T06:58:08.536Z,103017.53
2023-02-15T07:00:36.460Z,103002.56
2023-02-15T07:03:04.397Z,103008.72
2023-02-15T07:05:35.959Z,103010.91
2023-02-15T07:08:04.076Z,103016.09
2023-02-15T07:10:32.071Z,103024.91
2023-02-15T07:13:00.367Z,103028.22
2023-02-15T07:15:28.344Z,103006.53
2023-02-15T07:17:56.213Z,102999.59
2023-02-15T07:20:25.846Z,103000.50
2023-02-15T07:22:53.956Z,103001.47
2023-02-15T07:25:22.414Z,102999.00
2023-02-15T07:27:50.473Z,103004.00
2023-02-15T07:30:19.992Z,102998.94
2023-02-15T07:33:05.846Z,103014.53
2023-02-15T07:35:34.259Z,103000.38
2023-02-15T07:38:02.536Z,102998.56
2023-02-15T07:40:30.483Z,102992.31
2023-02-15T07:43:00.329Z,102998.34
2023-02-15T07:45:29.718Z,103003.28
2023-02-15T07:47:57.722Z,103005.88
2023-02-15T07:50:25.662Z,102981.53
2023-02-15T07:52:53.602Z,102974.16
2023-02-15T07:55:21.760Z,102973.25
2023-02-15T07:57:50.829Z,102969.00
2023-02-15T08:00:21.483Z,102960.38
2023-02-15T08:03:12.009Z,102953.44
2023-02-15T08:05:40.483Z,102954.47
2023-02-15T08:08:08.427Z,102948.28
2023-02-15T08:10:55.281Z,102951.00
2023-02-15T08:13:23.184Z,102941.97
2023-02-15T08:15:52.149Z,102949.56
2023-02-15T08:18:21.439Z,102949.66
2023-02-15T08:20:51.673Z,102959.38
2023-02-15T08:23:19.750Z,102960.00
2023-02-15T08:25:47.652Z,102951.28
2023-02-15T08:28:15.600Z,102955.06
2023-02-15T08:30:43.467Z,102955.03
2023-02-15T08:33:11.628Z,102955.03
2023-02-15T08:35:40.920Z,102955.66
2023-02-15T08:38:08.825Z,102951.22
2023-02-15T08:40:39.030Z,102953.41
2023-02-15T08:43:08.114Z,102966.19
2023-02-15T08:45:36.095Z,102958.34
2023-02-15T08:48:04.060Z,102973.00
2023-02-15T08:50:32.004Z,102968.63
2023-02-15T08:53:01.378Z,102959.34
2023-02-15T08:55:29.275Z,102966.19
2023-02-15T08:57:57.208Z,102970.38
2023-02-15T09:00:26.143Z,102968.22
2023-02-15T09:02:54.316Z,102965.31
2023-02-15T09:05:22.232Z,102979.72
2023-02-15T09:07:50.166Z,102968.00
2023-02-15T09:10:19.852Z,102965.69
2023-02-15T09:12:47.768Z,102974.69
2023-02-15T09:15:15.910Z,102971.13
2023-02-15T09:17:43.792Z,102972.25
2023-02-15T09:20:12.412Z,102969.56
2023-02-15T09:22:40.327Z,102955.09
2023-02-15T09:25:08.496Z,102962.50
2023-02-15T09:27:37.799Z,102955.06
2023-02-15T09:30:08.794Z,102964.69
2023-02-15T09:32:37.148Z,102969.31
2023-02-15T09:35:05.324Z,102974.41
2023-02-15T09:37:34.068Z,102948.53
2023-02-15T09:40:01.952Z,102949.13
2023-02-15T09:43:14.906Z,102947.53
2023-02-15T09:45:53.265Z,102969.06
2023-02-15T09:48:42.134Z,102971.00
2023-02-15T09:51:52.637Z,102982.78
2023-02-15T09:54:28.979Z,102980.13
2023-02-15T09:57:01.721Z,102977.53
2023-02-15T09:59:37.572Z,102973.41
2023-02-15T10:02:18.324Z,102966.38
2023-02-15T10:04:57.648Z,102973.16
2023-02-15T10:07:38.702Z,102969.47
2023-02-15T10:10:17.272Z,102969.19
2023-02-15T10:12:56.423Z,102972.53
2023-02-15T10:15:31.814Z,102983.50
2023-02-15T10:18:12.616Z,102981.09
2023-02-15T10:20:45.963Z,102984.53
2023-02-15T10:23:28.062Z,102976.19
2023-02-15T10:26:03.161Z,102979.72
2023-02-15T10:28:39.298Z,102982.88
2023-02-15T10:31:15.206Z,102975.69
2023-02-15T10:33:46.849Z,102976.53
2023-02-15T10:36:26.046Z,102976.84
2023-02-15T10:38:59.172Z,102973.53
2023-02-15T10:41:35.423Z,102969.59
2023-02-15T10:44:23.379Z,102981.34
2023-02-15T10:47:01.850Z,102971.53
2023-02-15T10:49:43.153Z,102983.84
2023-02-15T10:52:19.989Z,102977.97
2023-02-15T10:54:51.556Z,102981.75
2023-02-15T10:57:26.501Z,102968.59
2023-02-15T11:00:05.312Z,102971.63
2023-02-15T11:02:45.232Z,102963.66
2023-02-15T11:05:27.200Z,102963.31
2023-02-15T11:07:57.767Z,102963.81
2023-02-15T11:10:31.995Z,102964.44
2023-02-15T11:13:04.527Z,102954.69
2023-02-15T11:15:35.515Z,102948.63
2023-02-15T11:18:08.517Z,102950.63
2023-02-15T11:20:40.884Z,102949.22
2023-02-15T11:23:17.214Z,102942.13
2023-02-15T11:25:47.903Z,102945.75
2023-02-15T11:28:20.979Z,102935.09
2023-02-15T11:30:53.181Z,102936.78
2023-02-15T11:33:24.816Z,102935.78
2023-02-15T11:35:59.804Z,102942.69
2023-02-15T11:38:30.946Z,102932.75
2023-02-15T11:41:02.819Z,102928.84
2023-02-15T11:43:35.423Z,102916.53
2023-02-15T11:46:03.798Z,102918.97
2023-02-15T11:48:32.768Z,102921.75
2023-02-15T11:51:04.677Z,102915.06
2023-02-15T11:53:35.032Z,102912.97
2023-02-15T11:56:05.293Z,102899.13
2023-02-15T11:58:38.468Z,102893.69
2023-02-15T12:01:14.231Z,102883.94
2023-02-15T12:03:47.613Z,102888.50
2023-02-15T12:06:22.858Z,102886.59
2023-02-15T12:08:56.693Z,102883.13
2023-02-15T12:11:30.513Z,102879.31
2023-02-15T12:14:00.495Z,102868.56
2023-02-15T12:16:30.342Z,102864.31
2023-02-15T12:19:00.863Z,102856.13
2023-02-15T12:21:32.443Z,102849.38
2023-02-15T12:24:06.258Z,102844.91
2023-02-15T12:26:37.017Z,102838.00
2023-02-15T12:29:10.266Z,102822.84
2023-02-15T12:31:41.511Z,102817.50
2023-02-15T12:34:13.927Z,102807.94
2023-02-15T12:36:46.702Z,102797.38
2023-02-15T12:39:21.739Z,102781.31
2023-02-15T12:42:01.100Z,102771.91
2023-02-15T12:44:30.304Z,102754.28
2023-02-15T12:47:01.061Z,102732.63
2023-02-15T12:49:30.248Z,102725.59
2023-02-15T12:52:01.369Z,102702.34
2023-02-15T12:54:39.709Z,102686.28
2023-02-15T12:57:23.836Z,102676.19
2023-02-15T12:59:53.468Z,102664.88
2023-02-15T13:02:27.638Z,102653.47
2023-02-15T13:04:56.446Z,102641.59
2023-02-15T13:07:27.285Z,102650.97
2023-02-15T13:09:55.488Z,102633.34
2023-02-15T13:12:27.444Z,102608.69
2023-02-15T13:14:57.239Z,102596.22
2023-02-15T13:17:30.440Z,102581.91
2023-02-15T13:20:00.484Z,102557.78
2023-02-15T13:22:35.875Z,102534.53
2023-02-15T13:25:07.549Z,102516.72
2023-02-15T13:27:39.596Z,102509.91
2023-02-15T13:30:20.195Z,102494.34
2023-02-15T13:32:48.673Z,102472.94
2023-02-15T13:35:18.399Z,102453.56
2023-02-15T13:37:58.096Z,102440.97
2023-02-15T13:40:29.683Z,102436.16
2023-02-15T13:42:59.604Z,102427.66
2023-02-15T13:45:38.388Z,102411.75
2023-02-15T13:48:15.437Z,102401.38
2023-02-15T13:50:55.159Z,102396.50
2023-02-15T13:53:42.555Z,102383.38
2023-02-15T13:56:16.088Z,102378.16
2023-02-15T13:59:06.971Z,102368.56
2023-02-15T14:01:41.702Z,102357.56
2023-02-15T14:04:57.517Z,102365.94
2023-02-15T14:07:46.674Z,102360.44
2023-02-15T14:10:27.347Z,102361.28
2023-02-15T14:13:06.609Z,102355.09
2023-02-15T14:15:42.135Z,102345.88
2023-02-15T14:18:18.321Z,102340.75
2023-02-15T14:20:53.459Z,102331.19
2023-02-15T14:23:32.792Z,102336.06
2023-02-15T14:26:06.195Z,102333.34
2023-02-15T14:28:40.015Z,102326.63
2023-02-15T14:31:11.933Z,102326.63
2023-02-15T14:33:43.752Z,102325.34
2023-02-15T14:36:15.235Z,102321.72
2023-02-15T14:38:53.960Z,102323.78
2023-02-15T14:41:25.628Z,102326.56
2023-02-15T14:44:00.812Z,102329.25
2023-02-15T14:46:34.351Z,102320.91
2023-02-15T14:49:08.206Z,102322.00
2023-02-15T14:51:59.100Z,102310.13
2023-02-15T14:54:59.112Z,102312.97
2023-02-15T14:57:46.342Z,102310.38
2023-02-15T15:00:34.471Z,102304.47
2023-02-15T15:03:02.878Z,102299.88
2023-02-15T15:05:35.387Z,102298.94
2023-02-15T15:08:04.940Z,102294.41
2023-02-15T15:10:44.789Z,102296.53
2023-02-15T15:13:43.743Z,102293.41
2023-02-15T15:16:31.316Z,102293.88
2023-02-15T15:18:59.363Z,102287.97
2023-02-15T15:21:55.669Z,102296.44
2023-02-15T15:24:54.445Z,102284.00
2023-02-15T15:27:51.290Z,102286.94
2023-02-15T15:30:52.209Z,102287.97
2023-02-15T15:33:46.719Z,102289.41
2023-02-15T15:36:42.692Z,102277.63
2023-02-15T15:39:23.465Z,102281.81
2023-02-15T15:41:55.708Z,102282.84
2023-02-15T15:44:44.858Z,102287.47
2023-02-15T15:47:30.007Z,102282.50
2023-02-15T15:49:58.808Z,102278.94
2023-02-15T15:52:27.501Z,102282.41
2023-02-15T15:54:58.517Z,102277.44
2023-02-15T15:57:37.505Z,102279.25
2023-02-15T16:00:06.943Z,102273.50
2023-02-15T16:02:52.284Z,102266.69
2023-02-15T16:05:20.186Z,102274.00
2023-02-15T16:07:48.096Z,102274.56
2023-02-15T16:10:23.763Z,102265.22
2023-02-15T16:12:52.747Z,102268.94
2023-02-15T16:15:22.688Z,102272.09
2023-02-15T16:17:55.889Z,102267.94
2023-02-15T16:20:25.963Z,102270.34
2023-02-15T16:23:11.108Z,102271.69
2023-02-15T16:25:45.912Z,102264.63
2023-02-15T16:28:14.669Z,102272.16
2023-02-15T16:30:45.394Z,102270.25
2023-02-15T16:33:16.681Z,102269.72
2023-02-15T16:35:56.613Z,102279.53
2023-02-15T16:38:36.608Z,102283.88
2023-02-15T16:41:04.821Z,102281.97
2023-02-15T16:43:34.029Z,102278.41
2023-02-15T16:46:06.504Z,102286.59
2023-02-15T16:48:37.602Z,102288.94
2023-02-15T16:51:06.000Z,102281.59
2023-02-15T16:53:34.062Z,102282.34
2023-02-15T16:56:03.653Z,102282.19
2023-02-15T16:58:34.536Z,102284.28
2023-02-15T17:01:03.815Z,102286.19
2023-02-15T17:03:32.276Z,102285.22
2023-02-15T17:06:03.864Z,102281.97
2023-02-15T17:08:33.383Z,102280.44
2023-02-15T17:11:13.803Z,102284.94
2023-02-15T17:13:42.923Z,102295.69
2023-02-15T17:16:25.407Z,102295.69
2023-02-15T17:18:54.875Z,102302.72
2023-02-15T17:21:28.105Z,102311.16
2023-02-15T17:24:01.153Z,102325.22
2023-02-15T17:26:31.964Z,102317.56
2023-02-15T17:29:01.980Z,102314.66
2023-02-15T17:31:33.802Z,102323.50
2023-02-15T17:34:02.748Z,102330.81
2023-02-15T17:36:32.780Z,102331.91
2023-02-15T17:39:07.770Z,102333.84
2023-02-15T17:41:38.168Z,102324.34
2023-02-15T17:44:08.535Z,102325.56
2023-02-15T17:46:38.353Z,102321.72
2023-02-15T17:49:06.519Z,102317.78
2023-02-15T17:51:36.562Z,102317.03
2023-02-15T17:54:22.192Z,102314.94
2023-02-15T17:56:50.089Z,102312.25
2023-02-15T17:59:17.975Z,102319.44
2023-02-15T18:02:05.987Z,102318.34
2023-02-15T18:04:51.928Z,102321.03
2023-02-15T18:07:39.159Z,102312.13
2023-02-15T18:10:31.745Z,102308.47
2023-02-15T18:12:59.696Z,102299.47
2023-02-15T18:15:27.913Z,102306.06
2023-02-15T18:17:56.137Z,102307.00
2023-02-15T18:20:28.289Z,102298.56
2023-02-15T18:22:57.830Z,102301.00
2023-02-15T18:25:25.829Z,102294.69
2023-02-15T18:27:55.390Z,102290.78
2023-02-15T18:30:26.273Z,102285.56
2023-02-15T18:32:56.722Z,102286.63
2023-02-15T18:35:26.290Z,102291.00
2023-02-15T18:37:54.998Z,102293.81
2023-02-15T18:40:27.309Z,102292.44
2023-02-15T18:42:57.124Z,102293.63
2023-02-15T18:45:28.642Z,102290.53
2023-02-15T18:47:56.635Z,102286.16
2023-02-15T18:50:34.568Z,102285.44
2023-02-15T18:53:04.166Z,102290.06
2023-02-15T18:55:35.371Z,102282.34
2023-02-15T18:58:03.450Z,102291.41
2023-02-15T19:00:33.181Z,102286.03
2023-02-15T19:03:02.215Z,102275.94
2023-02-15T19:05:31.150Z,102277.28
2023-02-15T19:08:00.134Z,102271.38
2023-02-15T19:10:44.345Z,102270.84
2023-02-15T19:13:13.868Z,102270.84
2023-02-15T19:15:42.281Z,102267.59
2023-02-15T19:18:10.208Z,102272.09
2023-02-15T19:20:40.060Z,102273.44
2023-02-15T19:23:09.947Z,102276.41
2023-02-15T19:25:39.565Z,102281.81
2023-02-15T19:28:13.384Z,102276.38
2023-02-15T19:30:42.680Z,102280.25
2023-02-15T19:33:17.690Z,102275.63
2023-02-15T19:35:46.875Z,102270.69
2023-02-15T19:38:18.489Z,102272.38
2023-02-15T19:40:46.889Z,102281.56
2023-02-15T19:43:17.599Z,102286.06
2023-02-15T19:45:47.085Z,102281.47
2023-02-15T19:48:15.709Z,102294.69
2023-02-15T19:50:44.710Z,102293.47
2023-02-15T19:53:22.877Z,102289.72
2023-02-15T19:55:52.112Z,102285.75
2023-02-15T19:58:20.466Z,102288.16
2023-02-15T20:00:51.240Z,102291.28
2023-02-15T20:03:19.149Z,102280.84
2023-02-15T20:05:47.587Z,102285.41
2023-02-15T20:08:18.799Z,102287.56
2023-02-15T20:10:46.779Z,102273.69
2023-02-15T20:13:16.315Z,102279.25
2023-02-15T20:15:44.840Z,102265.13
2023-02-15T20:18:14.461Z,102266.06
2023-02-15T20:20:44.347Z,102272.38
2023-02-15T20:23:19.466Z,102272.88
2023-02-15T20:25:47.730Z,102264.22
2023-02-15T20:28:20.385Z,102260.06
2023-02-15T20:30:48.535Z,102265.44
2023-02-15T20:33:18.796Z,102262.88
2023-02-15T20:35:47.343Z,102259.44
2023-02-15T20:38:19.476Z,102263.59
2023-02-15T20:41:01.938Z,102263.81
2023-02-15T20:43:30.232Z,102266.03
2023-02-15T20:45:58.158Z,102263.09
2023-02-15T20:48:27.583Z,102264.81
2023-02-15T20:50:55.541Z,102264.09
2023-02-15T20:53:23.637Z,102263.31
2023-02-15T20:55:51.559Z,102255.28
2023-02-15T20:58:23.912Z,102265.09
2023-02-15T21:00:52.621Z,102263.22
2023-02-15T21:03:23.244Z,102263.44
2023-02-15T21:05:52.662Z,102257.56
2023-02-15T21:08:22.194Z,102266.53
2023-02-15T21:10:52.412Z,102268.56
2023-02-15T21:13:23.307Z,102265.13
2023-02-15T21:15:52.770Z,102260.75
2023-02-15T21:18:23.113Z,102268.97
2023-02-15T21:20:54.271Z,102270.22
2023-02-15T21:23:25.089Z,102258.66
2023-02-15T21:25:54.130Z,102260.25
2023-02-15T21:28:24.584Z,102258.34
2023-02-15T21:30:53.341Z,102256.56
2023-02-15T21:33:21.497Z,102264.44
2023-02-15T21:35:54.432Z,102267.03
2023-02-15T21:38:24.100Z,102259.53
2023-02-15T21:40:52.044Z,102267.59
2023-02-15T21:43:40.846Z,102255.97
2023-02-15T21:46:31.857Z,102270.00
2023-02-15T21:49:00.201Z,102271.28
2023-02-15T21:51:47.493Z,102280.13
2023-02-15T21:54:15.947Z,102269.50
2023-02-15T21:56:43.916Z,102267.16
2023-02-15T21:59:12.892Z,102269.28
2023-02-15T22:01:42.287Z,102275.22
2023-02-15T22:04:14.098Z,102277.81
2023-02-15T22:06:43.452Z,102272.06
2023-02-15T22:09:16.564Z,102266.41
2023-02-15T22:11:45.153Z,102264.78
2023-02-15T22:14:32.156Z,102267.50
2023-02-15T22:17:00.262Z,102259.28
2023-02-15T22:19:30.065Z,102265.50
2023-02-15T22:21:59.389Z,102261.41
2023-02-15T22:24:29.054Z,102258.72
2023-02-15T22:26:57.020Z,102257.16
2023-02-15T22:29:24.939Z,102260.63
2023-02-15T22:31:52.986Z,102259.97
2023-02-15T22:34:27.418Z,102252.59
2023-02-15T22:36:55.762Z,102257.78
2023-02-15T22:39:25.352Z,102254.09
2023-02-15T22:41:54.007Z,102248.22
2023-02-15T22:44:25.245Z,102245.84
2023-02-15T22:46:55.804Z,102247.56
2023-02-15T22:49:23.808Z,102246.81
2023-02-15T22:51:52.340Z,102237.78
2023-02-15T22:54:22.008Z,102242.50
2023-02-15T22:56:53.447Z,102231.72
2023-02-15T22:59:24.511Z,102226.50
2023-02-15T23:01:53.295Z,102234.34
2023-02-15T23:04:24.100Z,102229.84
2023-02-15T23:06:53.391Z,102228.78
2023-02-15T23:09:21.560Z,102226.88
2023-02-15T23:11:51.406Z,102225.09
2023-02-15T23:14:25.919Z,102226.00
2023-02-15T23:16:53.864Z,102212.28
2023-02-15T23:19:22.281Z,102214.16
2023-02-15T23:21:50.227Z,102208.91
2023-02-15T23:24:20.860Z,102214.44
2023-02-15T23:26:50.036Z,102216.22
2023-02-15T23:29:21.526Z,102216.47
2023-02-15T23:31:51.575Z,102218.31
2023-02-15T23:34:21.847Z,102222.69
2023-02-15T23:36:49.759Z,102219.03
2023-02-15T23:39:37.262Z,102226.34
2023-02-15T23:42:07.354Z,102220.22
2023-02-15T23:44:37.243Z,102221.00
2023-02-15T23:47:05.423Z,102232.47
2023-02-15T23:49:33.375Z,102233.31
2023-02-15T23:52:01.741Z,102228.09
2023-02-15T23:54:29.636Z,102233.63
2023-02-15T23:57:01.548Z,102231.88
2023-02-15T23:59:32.306Z,102223.72
